createdAt,value
2022-11-16T00:00:26.663Z,682.00
2022-11-16T00:00:56.703Z,681.00
2022-11-16T00:01:26.707Z,679.00
2022-11-16T00:01:56.763Z,679.00
2022-11-16T00:02:26.819Z,681.00
2022-11-16T00:02:56.800Z,682.00
2022-11-16T00:03:26.800Z,685.00
2022-11-16T00:03:56.804Z,684.00
2022-11-16T00:04:26.820Z,684.00
2022-11-16T00:04:56.823Z,683.00
2022-11-16T00:05:28.546Z,682.00
2022-11-16T00:05:56.889Z,681.00
2022-11-16T00:06:26.900Z,681.00
2022-11-16T00:06:56.925Z,681.00
2022-11-16T00:07:26.987Z,681.00
2022-11-16T00:07:57.003Z,681.00
2022-11-16T00:08:27.001Z,680.00
2022-11-16T00:08:57.005Z,680.00
2022-11-16T00:09:27.278Z,680.00
2022-11-16T00:09:57.086Z,682.00
2022-11-16T00:10:27.084Z,681.00
2022-11-16T00:10:57.093Z,681.00
2022-11-16T00:11:27.099Z,680.00
2022-11-16T00:11:57.109Z,679.00
2022-11-16T00:12:27.106Z,678.00
2022-11-16T00:12:57.174Z,678.00
2022-11-16T00:13:27.198Z,678.00
2022-11-16T00:13:57.205Z,676.00
2022-11-16T00:14:27.236Z,676.00
2022-11-16T00:14:57.208Z,676.00
2022-11-16T00:15:27.223Z,676.00
2022-11-16T00:15:57.230Z,678.00
2022-11-16T00:16:27.231Z,678.00
2022-11-16T00:16:57.235Z,677.00
2022-11-16T00:17:27.240Z,675.00
2022-11-16T00:17:57.255Z,675.00
2022-11-16T00:18:27.288Z,675.00
2022-11-16T00:18:57.296Z,675.00
2022-11-16T00:19:27.302Z,674.00
2022-11-16T00:19:57.309Z,673.00
2022-11-16T00:20:27.324Z,672.00
2022-11-16T00:20:57.316Z,673.00
2022-11-16T00:21:27.319Z,672.00
2022-11-16T00:21:57.322Z,673.00
2022-11-16T00:22:27.329Z,674.00
2022-11-16T00:22:57.339Z,674.00
2022-11-16T00:23:27.334Z,675.00
2022-11-16T00:23:57.345Z,674.00
2022-11-16T00:24:27.346Z,675.00
2022-11-16T00:24:57.387Z,672.00
2022-11-16T00:25:27.368Z,671.00
2022-11-16T00:25:57.387Z,671.00
2022-11-16T00:26:27.394Z,671.00
2022-11-16T00:26:57.394Z,672.00
2022-11-16T00:27:27.409Z,669.00
2022-11-16T00:27:57.509Z,668.00
2022-11-16T00:28:27.587Z,670.00
2022-11-16T00:28:57.663Z,670.00
2022-11-16T00:29:27.747Z,669.00
2022-11-16T00:29:57.842Z,670.00
2022-11-16T00:30:27.924Z,670.00
2022-11-16T00:30:58.005Z,670.00
2022-11-16T00:31:28.085Z,671.00
2022-11-16T00:31:58.174Z,668.00
2022-11-16T00:32:28.262Z,668.00
2022-11-16T00:32:58.333Z,669.00
2022-11-16T00:33:28.427Z,666.00
2022-11-16T00:33:58.514Z,668.00
2022-11-16T00:34:28.594Z,667.00
2022-11-16T00:34:58.673Z,666.00
2022-11-16T00:35:28.745Z,665.00
2022-11-16T00:35:58.833Z,664.00
2022-11-16T00:36:28.923Z,664.00
2022-11-16T00:36:59.006Z,664.00
2022-11-16T00:37:29.082Z,666.00
2022-11-16T00:37:59.190Z,666.00
2022-11-16T00:38:29.260Z,667.00
2022-11-16T00:38:59.284Z,668.00
2022-11-16T00:39:29.279Z,669.00
2022-11-16T00:39:59.275Z,668.00
2022-11-16T00:40:29.303Z,667.00
2022-11-16T00:40:59.285Z,667.00
2022-11-16T00:41:29.303Z,669.00
2022-11-16T00:41:59.296Z,670.00
2022-11-16T00:42:29.307Z,672.00
2022-11-16T00:42:59.300Z,673.00
2022-11-16T00:43:29.339Z,671.00
2022-11-16T00:43:59.348Z,671.00
2022-11-16T00:44:29.352Z,671.00
2022-11-16T00:44:59.364Z,668.00
2022-11-16T00:45:29.357Z,667.00
2022-11-16T00:45:59.362Z,664.00
2022-11-16T00:46:29.374Z,662.00
2022-11-16T00:46:59.367Z,662.00
2022-11-16T00:47:29.373Z,662.00
2022-11-16T00:48:00.771Z,664.00
2022-11-16T00:48:29.496Z,662.00
2022-11-16T00:48:59.487Z,662.00
2022-11-16T00:49:29.480Z,662.00
2022-11-16T00:49:59.480Z,663.00
2022-11-16T00:50:29.496Z,662.00
2022-11-16T00:50:59.502Z,662.00
2022-11-16T00:51:29.507Z,660.00
2022-11-16T00:51:59.516Z,661.00
2022-11-16T00:52:29.516Z,660.00
2022-11-16T00:52:59.522Z,661.00
2022-11-16T00:53:29.541Z,662.00
2022-11-16T00:53:59.544Z,663.00
2022-11-16T00:54:29.545Z,662.00
2022-11-16T00:54:59.544Z,663.00
2022-11-16T00:55:29.547Z,661.00
2022-11-16T00:55:59.581Z,663.00
2022-11-16T00:56:29.564Z,662.00
2022-11-16T00:56:59.569Z,666.00
2022-11-16T00:57:29.564Z,665.00
2022-11-16T00:57:59.573Z,668.00
2022-11-16T00:58:29.681Z,670.00
2022-11-16T00:58:59.680Z,671.00
2022-11-16T00:59:29.682Z,669.00
2022-11-16T00:59:59.688Z,667.00
2022-11-16T01:00:29.695Z,666.00
2022-11-16T01:00:59.748Z,664.00
2022-11-16T01:01:29.835Z,664.00
2022-11-16T01:01:59.818Z,664.00
2022-11-16T01:02:29.824Z,662.00
2022-11-16T01:02:59.837Z,662.00
2022-11-16T01:03:29.837Z,663.00
2022-11-16T01:03:59.843Z,665.00
2022-11-16T01:04:29.843Z,665.00
2022-11-16T01:04:59.844Z,668.00
2022-11-16T01:05:29.850Z,666.00
2022-11-16T01:05:59.855Z,665.00
2022-11-16T01:06:29.864Z,667.00
2022-11-16T01:06:59.912Z,667.00
2022-11-16T01:07:29.993Z,667.00
2022-11-16T01:07:59.988Z,668.00
2022-11-16T01:08:30.113Z,668.00
2022-11-16T01:09:00.085Z,666.00
2022-11-16T01:09:30.082Z,664.00
2022-11-16T01:10:00.096Z,663.00
2022-11-16T01:10:30.091Z,662.00
2022-11-16T01:11:00.111Z,662.00
2022-11-16T01:11:30.134Z,662.00
2022-11-16T01:12:00.121Z,663.00
2022-11-16T01:12:30.123Z,661.00
2022-11-16T01:13:00.140Z,661.00
2022-11-16T01:13:30.133Z,662.00
2022-11-16T01:14:00.152Z,661.00
2022-11-16T01:14:30.144Z,660.00
2022-11-16T01:15:00.145Z,658.00
2022-11-16T01:15:30.150Z,660.00
2022-11-16T01:16:00.158Z,662.00
2022-11-16T01:16:30.176Z,661.00
2022-11-16T01:17:00.183Z,662.00
2022-11-16T01:17:30.192Z,662.00
2022-11-16T01:18:00.190Z,662.00
2022-11-16T01:18:30.288Z,664.00
2022-11-16T01:19:00.276Z,666.00
2022-11-16T01:19:30.293Z,666.00
2022-11-16T01:20:00.289Z,666.00
2022-11-16T01:20:30.294Z,664.00
2022-11-16T01:21:00.295Z,664.00
2022-11-16T01:21:30.303Z,662.00
2022-11-16T01:22:00.323Z,662.00
2022-11-16T01:22:30.331Z,663.00
2022-11-16T01:23:00.332Z,663.00
2022-11-16T01:23:30.329Z,663.00
2022-11-16T01:24:00.336Z,665.00
2022-11-16T01:24:30.344Z,664.00
2022-11-16T01:25:00.348Z,664.00
2022-11-16T01:25:30.351Z,663.00
2022-11-16T01:26:00.356Z,663.00
2022-11-16T01:26:30.359Z,661.00
2022-11-16T01:27:00.407Z,661.00
2022-11-16T01:27:30.381Z,661.00
2022-11-16T01:28:00.469Z,660.00
2022-11-16T01:28:30.866Z,661.00
2022-11-16T01:29:00.641Z,661.00
2022-11-16T01:29:30.716Z,659.00
2022-11-16T01:30:00.804Z,658.00
2022-11-16T01:30:30.888Z,657.00
2022-11-16T01:31:00.969Z,655.00
2022-11-16T01:31:31.050Z,652.00
2022-11-16T01:32:01.142Z,653.00
2022-11-16T01:32:31.223Z,653.00
2022-11-16T01:33:01.295Z,653.00
2022-11-16T01:33:31.399Z,653.00
2022-11-16T01:34:01.482Z,655.00
2022-11-16T01:34:31.577Z,657.00
2022-11-16T01:35:01.645Z,659.00
2022-11-16T01:35:31.733Z,657.00
2022-11-16T01:36:01.810Z,656.00
2022-11-16T01:36:31.885Z,655.00
2022-11-16T01:37:01.967Z,656.00
2022-11-16T01:37:32.067Z,654.00
2022-11-16T01:38:02.059Z,654.00
2022-11-16T01:38:32.563Z,654.00
2022-11-16T01:39:02.095Z,655.00
2022-11-16T01:39:32.093Z,654.00
2022-11-16T01:40:02.101Z,653.00
2022-11-16T01:40:32.106Z,653.00
2022-11-16T01:41:02.107Z,652.00
2022-11-16T01:41:32.123Z,651.00
2022-11-16T01:42:02.125Z,650.00
2022-11-16T01:42:32.154Z,651.00
2022-11-16T01:43:02.140Z,651.00
2022-11-16T01:43:32.146Z,651.00
2022-11-16T01:44:02.151Z,651.00
2022-11-16T01:44:32.170Z,653.00
2022-11-16T01:45:02.158Z,652.00
2022-11-16T01:45:32.163Z,652.00
2022-11-16T01:46:02.170Z,653.00
2022-11-16T01:46:32.180Z,652.00
2022-11-16T01:47:02.175Z,653.00
2022-11-16T01:47:32.188Z,651.00
2022-11-16T01:48:02.270Z,652.00
2022-11-16T01:48:32.715Z,653.00
2022-11-16T01:49:02.269Z,654.00
2022-11-16T01:49:32.284Z,654.00
2022-11-16T01:50:02.291Z,652.00
2022-11-16T01:50:32.282Z,654.00
2022-11-16T01:51:02.293Z,655.00
2022-11-16T01:51:32.296Z,654.00
2022-11-16T01:52:02.302Z,655.00
2022-11-16T01:52:32.312Z,653.00
2022-11-16T01:53:02.311Z,653.00
2022-11-16T01:53:32.315Z,653.00
2022-11-16T01:54:02.313Z,655.00
2022-11-16T01:54:32.316Z,655.00
2022-11-16T01:55:02.328Z,654.00
2022-11-16T01:55:32.326Z,654.00
2022-11-16T01:56:02.335Z,651.00
2022-11-16T01:56:32.339Z,651.00
2022-11-16T01:57:02.350Z,651.00
2022-11-16T01:57:32.368Z,650.00
2022-11-16T01:58:02.402Z,651.00
2022-11-16T01:58:32.787Z,652.00
2022-11-16T01:59:02.473Z,652.00
2022-11-16T01:59:32.477Z,653.00
2022-11-16T02:00:02.483Z,652.00
2022-11-16T02:00:32.493Z,655.00
2022-11-16T02:01:02.536Z,654.00
2022-11-16T02:01:32.579Z,652.00
2022-11-16T02:02:02.572Z,650.00
2022-11-16T02:02:32.594Z,650.00
2022-11-16T02:03:02.610Z,648.00
2022-11-16T02:03:32.606Z,649.00
2022-11-16T02:04:02.692Z,647.00
2022-11-16T02:04:32.681Z,645.00
2022-11-16T02:05:02.699Z,645.00
2022-11-16T02:05:32.701Z,645.00
2022-11-16T02:06:02.706Z,645.00
2022-11-16T02:06:32.708Z,647.00
2022-11-16T02:07:02.807Z,648.00
2022-11-16T02:07:32.908Z,648.00
2022-11-16T02:08:02.908Z,646.00
2022-11-16T02:08:33.183Z,646.00
2022-11-16T02:09:02.967Z,647.00
2022-11-16T02:09:32.979Z,647.00
2022-11-16T02:10:02.979Z,647.00
2022-11-16T02:10:32.992Z,645.00
2022-11-16T02:11:02.986Z,648.00
2022-11-16T02:11:32.985Z,648.00
2022-11-16T02:12:02.995Z,647.00
2022-11-16T02:12:33.004Z,649.00
2022-11-16T02:13:03.027Z,649.00
2022-11-16T02:13:33.051Z,647.00
2022-11-16T02:14:03.035Z,647.00
2022-11-16T02:14:33.036Z,646.00
2022-11-16T02:15:03.050Z,648.00
2022-11-16T02:15:33.057Z,647.00
2022-11-16T02:16:03.060Z,648.00
2022-11-16T02:16:33.070Z,647.00
2022-11-16T02:17:03.070Z,646.00
2022-11-16T02:17:33.093Z,648.00
2022-11-16T02:18:03.107Z,649.00
2022-11-16T02:18:33.373Z,650.00
2022-11-16T02:19:03.136Z,648.00
2022-11-16T02:19:33.141Z,648.00
2022-11-16T02:20:03.147Z,648.00
2022-11-16T02:20:33.158Z,647.00
2022-11-16T02:21:03.162Z,647.00
2022-11-16T02:21:33.161Z,649.00
2022-11-16T02:22:03.182Z,649.00
2022-11-16T02:22:33.187Z,650.00
2022-11-16T02:23:03.199Z,652.00
2022-11-16T02:23:33.193Z,648.00
2022-11-16T02:24:03.200Z,648.00
2022-11-16T02:24:33.207Z,647.00
2022-11-16T02:25:03.208Z,645.00
2022-11-16T02:25:33.214Z,650.00
2022-11-16T02:26:03.221Z,650.00
2022-11-16T02:26:33.221Z,646.00
2022-11-16T02:27:03.243Z,649.00
2022-11-16T02:27:33.246Z,648.00
2022-11-16T02:28:03.343Z,650.00
2022-11-16T02:28:33.906Z,648.00
2022-11-16T02:29:03.543Z,646.00
2022-11-16T02:29:33.595Z,646.00
2022-11-16T02:30:03.686Z,645.00
2022-11-16T02:30:33.760Z,647.00
2022-11-16T02:31:03.848Z,647.00
2022-11-16T02:31:33.920Z,649.00
2022-11-16T02:32:04.013Z,648.00
2022-11-16T02:32:34.097Z,647.00
2022-11-16T02:33:04.173Z,647.00
2022-11-16T02:33:34.261Z,645.00
2022-11-16T02:34:04.333Z,647.00
2022-11-16T02:34:34.421Z,647.00
2022-11-16T02:35:04.514Z,648.00
2022-11-16T02:35:34.604Z,648.00
2022-11-16T02:36:04.685Z,646.00
2022-11-16T02:36:34.770Z,645.00
2022-11-16T02:37:04.861Z,646.00
2022-11-16T02:37:34.941Z,642.00
2022-11-16T02:38:04.936Z,641.00
2022-11-16T02:38:35.374Z,643.00
2022-11-16T02:39:05.027Z,643.00
2022-11-16T02:39:35.033Z,643.00
2022-11-16T02:40:05.039Z,642.00
2022-11-16T02:40:35.052Z,642.00
2022-11-16T02:41:05.053Z,641.00
2022-11-16T02:41:35.053Z,642.00
2022-11-16T02:42:05.057Z,640.00
2022-11-16T02:42:35.063Z,641.00
2022-11-16T02:43:05.082Z,640.00
2022-11-16T02:43:35.088Z,638.00
2022-11-16T02:44:05.114Z,637.00
2022-11-16T02:44:35.135Z,637.00
2022-11-16T02:45:05.114Z,638.00
2022-11-16T02:45:35.120Z,636.00
2022-11-16T02:46:05.135Z,637.00
2022-11-16T02:46:35.125Z,638.00
2022-11-16T02:47:05.123Z,641.00
2022-11-16T02:47:35.136Z,640.00
2022-11-16T02:48:05.138Z,641.00
2022-11-16T02:48:35.579Z,641.00
2022-11-16T02:49:05.235Z,640.00
2022-11-16T02:49:35.315Z,638.00
2022-11-16T02:50:05.320Z,637.00
2022-11-16T02:50:35.332Z,638.00
2022-11-16T02:51:05.331Z,635.00
2022-11-16T02:51:35.340Z,636.00
2022-11-16T02:52:05.341Z,635.00
2022-11-16T02:52:35.350Z,634.00
2022-11-16T02:53:05.367Z,634.00
2022-11-16T02:53:35.370Z,635.00
2022-11-16T02:54:05.371Z,636.00
2022-11-16T02:54:35.380Z,639.00
2022-11-16T02:55:05.381Z,639.00
2022-11-16T02:55:35.378Z,640.00
2022-11-16T02:56:05.391Z,639.00
2022-11-16T02:56:35.391Z,638.00
2022-11-16T02:57:05.401Z,637.00
2022-11-16T02:57:35.403Z,637.00
2022-11-16T02:58:05.402Z,638.00
2022-11-16T02:58:35.763Z,638.00
2022-11-16T02:59:05.461Z,637.00
2022-11-16T02:59:35.468Z,635.00
2022-11-16T03:00:05.493Z,633.00
2022-11-16T03:00:35.535Z,634.00
2022-11-16T03:01:05.614Z,633.00
2022-11-16T03:01:35.603Z,635.00
2022-11-16T03:02:05.603Z,634.00
2022-11-16T03:02:35.607Z,634.00
2022-11-16T03:03:05.611Z,634.00
2022-11-16T03:03:35.620Z,632.00
2022-11-16T03:04:05.633Z,630.00
2022-11-16T03:04:35.635Z,631.00
2022-11-16T03:05:05.633Z,632.00
2022-11-16T03:05:35.639Z,631.00
2022-11-16T03:06:05.641Z,630.00
2022-11-16T03:06:35.649Z,631.00
2022-11-16T03:07:05.692Z,633.00
2022-11-16T03:07:35.734Z,634.00
2022-11-16T03:08:05.711Z,635.00
2022-11-16T03:08:36.160Z,632.00
2022-11-16T03:09:05.757Z,631.00
2022-11-16T03:09:35.766Z,629.00
2022-11-16T03:10:05.769Z,630.00
2022-11-16T03:10:35.780Z,628.00
2022-11-16T03:11:05.786Z,629.00
2022-11-16T03:11:35.795Z,633.00
2022-11-16T03:12:05.808Z,633.00
2022-11-16T03:12:35.803Z,632.00
2022-11-16T03:13:05.815Z,633.00
2022-11-16T03:13:35.831Z,636.00
2022-11-16T03:14:05.845Z,635.00
2022-11-16T03:14:35.854Z,633.00
2022-11-16T03:15:05.859Z,633.00
2022-11-16T03:15:35.886Z,633.00
2022-11-16T03:16:05.857Z,633.00
2022-11-16T03:16:35.872Z,631.00
2022-11-16T03:17:05.878Z,632.00
2022-11-16T03:17:35.881Z,631.00
2022-11-16T03:18:05.882Z,631.00
2022-11-16T03:18:36.346Z,631.00
2022-11-16T03:19:05.959Z,633.00
2022-11-16T03:19:35.961Z,635.00
2022-11-16T03:20:05.992Z,636.00
2022-11-16T03:20:35.998Z,636.00
2022-11-16T03:21:06.008Z,636.00
2022-11-16T03:21:36.016Z,634.00
2022-11-16T03:22:06.018Z,631.00
2022-11-16T03:22:36.041Z,631.00
2022-11-16T03:23:06.031Z,630.00
2022-11-16T03:23:36.041Z,631.00
2022-11-16T03:24:06.040Z,630.00
2022-11-16T03:24:36.044Z,631.00
2022-11-16T03:25:06.061Z,630.00
2022-11-16T03:25:36.063Z,630.00
2022-11-16T03:26:06.068Z,629.00
2022-11-16T03:26:36.070Z,630.00
2022-11-16T03:27:06.075Z,629.00
2022-11-16T03:27:36.082Z,628.00
2022-11-16T03:28:06.166Z,628.00
2022-11-16T03:28:36.447Z,626.00
2022-11-16T03:29:06.289Z,625.00
2022-11-16T03:29:36.370Z,627.00
2022-11-16T03:30:06.463Z,628.00
2022-11-16T03:30:36.543Z,627.00
2022-11-16T03:31:06.648Z,626.00
2022-11-16T03:31:36.710Z,625.00
2022-11-16T03:32:06.791Z,624.00
2022-11-16T03:32:36.871Z,623.00
2022-11-16T03:33:06.955Z,624.00
2022-11-16T03:33:37.039Z,624.00
2022-11-16T03:34:07.120Z,625.00
2022-11-16T03:34:37.200Z,623.00
2022-11-16T03:35:07.285Z,624.00
2022-11-16T03:35:37.367Z,623.00
2022-11-16T03:36:07.454Z,620.00
2022-11-16T03:36:37.539Z,619.00
2022-11-16T03:37:07.626Z,618.00
2022-11-16T03:37:37.716Z,617.00
2022-11-16T03:38:07.722Z,616.00
2022-11-16T03:38:37.728Z,615.00
2022-11-16T03:39:07.735Z,617.00
2022-11-16T03:39:37.749Z,617.00
2022-11-16T03:40:07.757Z,617.00
2022-11-16T03:40:37.767Z,619.00
2022-11-16T03:41:07.791Z,623.00
2022-11-16T03:41:37.797Z,621.00
2022-11-16T03:42:07.801Z,623.00
2022-11-16T03:42:37.807Z,623.00
2022-11-16T03:43:07.813Z,622.00
2022-11-16T03:43:37.816Z,622.00
2022-11-16T03:44:07.824Z,622.00
2022-11-16T03:44:37.835Z,620.00
2022-11-16T03:45:07.842Z,622.00
2022-11-16T03:45:37.839Z,623.00
2022-11-16T03:46:07.847Z,624.00
2022-11-16T03:46:37.867Z,623.00
2022-11-16T03:47:07.847Z,623.00
2022-11-16T03:47:37.853Z,625.00
2022-11-16T03:48:07.865Z,624.00
2022-11-16T03:48:37.869Z,624.00
2022-11-16T03:49:07.878Z,624.00
2022-11-16T03:49:37.881Z,622.00
2022-11-16T03:50:07.899Z,623.00
2022-11-16T03:50:37.901Z,624.00
2022-11-16T03:51:07.908Z,622.00
2022-11-16T03:51:37.905Z,624.00
2022-11-16T03:52:07.923Z,624.00
2022-11-16T03:52:37.929Z,623.00
2022-11-16T03:53:07.946Z,623.00
2022-11-16T03:53:37.956Z,622.00
2022-11-16T03:54:07.953Z,621.00
2022-11-16T03:54:37.964Z,622.00
2022-11-16T03:55:07.978Z,623.00
2022-11-16T03:55:37.984Z,622.00
2022-11-16T03:56:07.987Z,624.00
2022-11-16T03:56:37.984Z,625.00
2022-11-16T03:57:08.113Z,624.00
2022-11-16T03:57:38.013Z,625.00
2022-11-16T03:58:08.024Z,627.00
2022-11-16T03:58:38.034Z,625.00
2022-11-16T03:59:08.040Z,626.00
2022-11-16T03:59:38.044Z,626.00
2022-11-16T04:00:08.053Z,628.00
2022-11-16T04:00:38.115Z,631.00
2022-11-16T04:01:08.165Z,632.00
2022-11-16T04:01:41.861Z,632.00
2022-11-16T04:02:08.298Z,632.00
2022-11-16T04:02:38.285Z,630.00
2022-11-16T04:03:08.291Z,628.00
2022-11-16T04:03:38.304Z,629.00
2022-11-16T04:04:08.342Z,629.00
2022-11-16T04:04:38.393Z,627.00
2022-11-16T04:05:08.401Z,627.00
2022-11-16T04:05:38.406Z,625.00
2022-11-16T04:06:08.415Z,623.00
2022-11-16T04:06:38.411Z,625.00
2022-11-16T04:07:08.547Z,623.00
2022-11-16T04:07:38.466Z,626.00
2022-11-16T04:08:08.483Z,623.00
2022-11-16T04:08:38.486Z,625.00
2022-11-16T04:09:08.502Z,624.00
2022-11-16T04:09:38.500Z,623.00
2022-11-16T04:10:08.513Z,624.00
2022-11-16T04:10:38.523Z,625.00
2022-11-16T04:11:08.522Z,624.00
2022-11-16T04:11:38.528Z,621.00
2022-11-16T04:12:08.530Z,619.00
2022-11-16T04:12:38.535Z,620.00
2022-11-16T04:13:08.538Z,620.00
2022-11-16T04:13:38.553Z,620.00
2022-11-16T04:14:09.385Z,620.00
2022-11-16T04:14:38.618Z,619.00
2022-11-16T04:15:08.631Z,620.00
2022-11-16T04:15:38.642Z,618.00
2022-11-16T04:16:08.649Z,618.00
2022-11-16T04:16:38.656Z,618.00
2022-11-16T04:17:08.658Z,617.00
2022-11-16T04:17:38.692Z,617.00
2022-11-16T04:18:08.680Z,617.00
2022-11-16T04:18:38.681Z,616.00
2022-11-16T04:19:08.693Z,613.00
2022-11-16T04:19:38.692Z,614.00
2022-11-16T04:20:08.712Z,615.00
2022-11-16T04:20:38.712Z,615.00
2022-11-16T04:21:08.721Z,616.00
2022-11-16T04:21:38.727Z,618.00
2022-11-16T04:22:08.729Z,617.00
2022-11-16T04:22:38.743Z,619.00
2022-11-16T04:23:08.753Z,620.00
2022-11-16T04:23:38.767Z,619.00
2022-11-16T04:24:08.768Z,620.00
2022-11-16T04:24:38.764Z,621.00
2022-11-16T04:25:08.782Z,620.00
2022-11-16T04:25:38.782Z,621.00
2022-11-16T04:26:08.789Z,621.00
2022-11-16T04:26:38.803Z,620.00
2022-11-16T04:27:08.798Z,619.00
2022-11-16T04:27:38.803Z,619.00
2022-11-16T04:28:08.881Z,620.00
2022-11-16T04:29:18.025Z,636.00
2022-11-16T04:29:48.055Z,636.00
2022-11-16T04:30:18.097Z,633.00
2022-11-16T04:30:48.133Z,630.00
2022-11-16T04:31:18.158Z,632.00
2022-11-16T04:31:48.202Z,636.00
2022-11-16T04:32:18.233Z,635.00
2022-11-16T04:32:48.323Z,634.00
2022-11-16T04:33:18.336Z,633.00
2022-11-16T04:33:48.374Z,633.00
2022-11-16T04:34:18.415Z,633.00
2022-11-16T04:34:48.456Z,633.00
2022-11-16T04:35:18.493Z,632.00
2022-11-16T04:35:48.529Z,633.00
2022-11-16T04:36:20.722Z,631.00
2022-11-16T04:36:48.712Z,630.00
2022-11-16T04:37:18.774Z,631.00
2022-11-16T04:37:48.825Z,630.00
2022-11-16T04:38:18.851Z,631.00
2022-11-16T04:38:48.889Z,631.00
2022-11-16T04:39:18.971Z,629.00
2022-11-16T04:39:49.057Z,629.00
2022-11-16T04:40:19.142Z,627.00
2022-11-16T04:40:49.217Z,630.00
2022-11-16T04:41:19.299Z,630.00
2022-11-16T04:41:49.380Z,631.00
2022-11-16T04:42:19.463Z,631.00
2022-11-16T04:42:49.557Z,632.00
2022-11-16T04:43:19.646Z,631.00
2022-11-16T04:43:49.741Z,632.00
2022-11-16T04:44:19.819Z,632.00
2022-11-16T04:44:49.913Z,632.00
2022-11-16T04:45:19.997Z,632.00
2022-11-16T04:45:50.076Z,631.00
2022-11-16T04:46:20.157Z,632.00
2022-11-16T04:46:50.241Z,632.00
2022-11-16T04:47:20.323Z,630.00
2022-11-16T04:47:50.427Z,630.00
2022-11-16T04:48:20.491Z,627.00
2022-11-16T04:48:50.578Z,629.00
2022-11-16T04:49:20.658Z,629.00
2022-11-16T04:49:50.747Z,629.00
2022-11-16T04:50:20.824Z,630.00
2022-11-16T04:50:50.902Z,631.00
2022-11-16T04:51:20.982Z,632.00
2022-11-16T04:51:51.069Z,631.00
2022-11-16T04:52:21.149Z,632.00
2022-11-16T04:52:51.232Z,631.00
2022-11-16T04:53:21.312Z,630.00
2022-11-16T04:53:51.409Z,631.00
2022-11-16T04:54:21.482Z,628.00
2022-11-16T04:54:51.564Z,627.00
2022-11-16T04:55:21.651Z,626.00
2022-11-16T04:55:53.518Z,627.00
2022-11-16T04:56:21.839Z,629.00
2022-11-16T04:56:51.916Z,627.00
2022-11-16T04:57:21.999Z,628.00
2022-11-16T04:57:52.085Z,628.00
2022-11-16T04:58:22.163Z,630.00
2022-11-16T04:58:52.260Z,629.00
2022-11-16T04:59:22.345Z,629.00
2022-11-16T04:59:52.445Z,632.00
2022-11-16T05:00:22.516Z,634.00
2022-11-16T05:00:52.595Z,632.00
2022-11-16T05:01:22.744Z,634.00
2022-11-16T05:01:52.840Z,632.00
2022-11-16T05:02:22.815Z,633.00
2022-11-16T05:02:55.657Z,634.00
2022-11-16T05:03:22.951Z,636.00
2022-11-16T05:03:53.058Z,634.00
2022-11-16T05:04:23.133Z,634.00
2022-11-16T05:04:53.208Z,634.00
2022-11-16T05:05:23.287Z,634.00
2022-11-16T05:05:53.371Z,631.00
2022-11-16T05:06:23.455Z,630.00
2022-11-16T05:06:53.617Z,629.00
2022-11-16T05:07:23.606Z,629.00
2022-11-16T05:07:53.712Z,630.00
2022-11-16T05:08:23.787Z,632.00
2022-11-16T05:08:53.871Z,632.00
2022-11-16T05:09:23.951Z,632.00
2022-11-16T05:09:54.025Z,631.00
2022-11-16T05:10:24.117Z,632.00
2022-11-16T05:10:54.196Z,633.00
2022-11-16T05:11:24.271Z,633.00
2022-11-16T05:11:54.351Z,632.00
2022-11-16T05:12:24.430Z,632.00
2022-11-16T05:12:54.532Z,633.00
2022-11-16T05:13:24.608Z,630.00
2022-11-16T05:13:54.693Z,628.00
2022-11-16T05:14:24.783Z,629.00
2022-11-16T05:14:54.855Z,627.00
2022-11-16T05:15:24.941Z,627.00
2022-11-16T05:15:55.021Z,626.00
2022-11-16T05:16:25.098Z,626.00
2022-11-16T05:16:55.183Z,627.00
2022-11-16T05:17:25.269Z,632.00
2022-11-16T05:17:55.351Z,630.00
2022-11-16T05:18:25.455Z,631.00
2022-11-16T05:18:55.506Z,629.00
2022-11-16T05:19:25.595Z,627.00
2022-11-16T05:19:55.674Z,626.00
2022-11-16T05:20:25.751Z,628.00
2022-11-16T05:20:55.828Z,629.00
2022-11-16T05:21:25.919Z,632.00
2022-11-16T05:21:56.011Z,632.00
2022-11-16T05:22:26.085Z,633.00
2022-11-16T05:22:56.172Z,635.00
2022-11-16T05:23:26.253Z,634.00
2022-11-16T05:23:56.343Z,633.00
2022-11-16T05:24:26.423Z,634.00
2022-11-16T05:24:56.499Z,635.00
2022-11-16T05:25:26.577Z,635.00
2022-11-16T05:25:56.665Z,637.00
2022-11-16T05:26:26.754Z,638.00
2022-11-16T05:26:56.829Z,641.00
2022-11-16T05:27:26.910Z,641.00
2022-11-16T05:27:56.998Z,645.00
2022-11-16T05:28:27.096Z,645.00
2022-11-16T05:28:57.159Z,643.00
2022-11-16T05:29:27.200Z,641.00
2022-11-16T05:29:57.246Z,641.00
2022-11-16T05:30:27.294Z,638.00
2022-11-16T05:30:57.339Z,634.00
2022-11-16T05:31:27.373Z,634.00
2022-11-16T05:31:57.414Z,634.00
2022-11-16T05:32:27.459Z,634.00
2022-11-16T05:32:57.509Z,633.00
2022-11-16T05:33:27.553Z,626.00
2022-11-16T05:33:57.614Z,627.00
2022-11-16T05:34:27.634Z,623.00
2022-11-16T05:34:57.679Z,626.00
2022-11-16T05:35:27.722Z,626.00
2022-11-16T05:35:57.772Z,624.00
2022-11-16T05:36:27.811Z,626.00
2022-11-16T05:36:57.862Z,628.00
2022-11-16T05:37:27.895Z,631.00
2022-11-16T05:37:57.950Z,633.00
2022-11-16T05:38:27.990Z,642.00
2022-11-16T05:38:58.043Z,637.00
2022-11-16T05:39:28.132Z,638.00
2022-11-16T05:39:58.223Z,639.00
2022-11-16T05:40:28.297Z,637.00
2022-11-16T05:40:58.388Z,637.00
2022-11-16T05:41:28.465Z,637.00
2022-11-16T05:41:58.558Z,637.00
2022-11-16T05:42:28.631Z,643.00
2022-11-16T05:42:58.729Z,645.00
2022-11-16T05:43:28.818Z,661.00
2022-11-16T05:43:58.901Z,687.00
2022-11-16T05:44:28.976Z,695.00
2022-11-16T05:44:59.058Z,704.00
2022-11-16T05:45:29.147Z,703.00
2022-11-16T05:45:59.226Z,703.00
2022-11-16T05:46:29.302Z,698.00
2022-11-16T05:46:59.378Z,702.00
2022-11-16T05:47:29.468Z,699.00
2022-11-16T05:47:59.558Z,697.00
2022-11-16T05:48:29.632Z,695.00
2022-11-16T05:48:59.720Z,692.00
2022-11-16T05:49:29.820Z,696.00
2022-11-16T05:49:59.881Z,698.00
2022-11-16T05:50:29.965Z,701.00
2022-11-16T05:51:00.035Z,701.00
2022-11-16T05:51:30.132Z,698.00
2022-11-16T05:52:00.211Z,703.00
2022-11-16T05:52:30.294Z,703.00
2022-11-16T05:53:00.374Z,705.00
2022-11-16T05:53:30.461Z,707.00
2022-11-16T05:54:00.547Z,708.00
2022-11-16T05:54:30.631Z,711.00
2022-11-16T05:55:00.711Z,712.00
2022-11-16T05:55:30.795Z,714.00
2022-11-16T05:56:00.973Z,715.00
2022-11-16T05:56:31.017Z,713.00
2022-11-16T05:57:00.972Z,713.00
2022-11-16T05:57:31.059Z,714.00
2022-11-16T05:58:01.144Z,717.00
2022-11-16T05:58:31.513Z,719.00
2022-11-16T05:59:01.293Z,720.00
2022-11-16T05:59:31.388Z,720.00
2022-11-16T06:00:01.484Z,722.00
2022-11-16T06:00:31.566Z,722.00
2022-11-16T06:01:01.646Z,723.00
2022-11-16T06:01:31.733Z,728.00
2022-11-16T06:02:01.821Z,726.00
2022-11-16T06:02:31.905Z,728.00
2022-11-16T06:03:02.034Z,730.00
2022-11-16T06:03:32.037Z,731.00
2022-11-16T06:04:02.104Z,732.00
2022-11-16T06:04:32.213Z,729.00
2022-11-16T06:05:02.271Z,729.00
2022-11-16T06:05:36.295Z,732.00
2022-11-16T06:06:02.425Z,732.00
2022-11-16T06:06:32.514Z,732.00
2022-11-16T06:07:02.638Z,732.00
2022-11-16T06:07:32.777Z,732.00
2022-11-16T06:08:02.672Z,731.00
2022-11-16T06:08:33.246Z,732.00
2022-11-16T06:09:02.852Z,732.00
2022-11-16T06:09:32.940Z,733.00
2022-11-16T06:10:03.012Z,735.00
2022-11-16T06:10:33.100Z,736.00
2022-11-16T06:11:03.196Z,734.00
2022-11-16T06:11:36.149Z,735.00
2022-11-16T06:12:03.380Z,735.00
2022-11-16T06:12:33.463Z,735.00
2022-11-16T06:13:03.553Z,736.00
2022-11-16T06:13:33.652Z,738.00
2022-11-16T06:14:03.734Z,740.00
2022-11-16T06:14:33.817Z,741.00
2022-11-16T06:15:03.908Z,742.00
2022-11-16T06:15:34.012Z,743.00